sensor_id;sensor_type;location;lat;lon;timestamp;P1;durP1;ratioP1;P2;durP2;ratioP2
20882;SDS011;10601;51.830;7.294;2022-07-10T00:00:25;6.75;;;1.90;;
20882;SDS011;10601;51.830;7.294;2022-07-10T00:02:52;10.52;;;1.58;;
20882;SDS011;10601;51.830;7.294;2022-07-10T00:05:18;5.60;;;1.52;;
20882;SDS011;10601;51.830;7.294;2022-07-10T00:07:45;11.60;;;1.83;;
20882;SDS011;10601;51.830;7.294;2022-07-10T00:10:11;7.80;;;1.67;;
20882;SDS011;10601;51.830;7.294;2022-07-10T00:12:37;12.27;;;1.90;;
20882;SDS011;10601;51.830;7.294;2022-07-10T00:15:04;7.25;;;2.08;;
20882;SDS011;10601;51.830;7.294;2022-07-10T00:17:31;10.40;;;1.70;;
20882;SDS011;10601;51.830;7.294;2022-07-10T00:19:57;6.00;;;1.77;;
20882;SDS011;10601;51.830;7.294;2022-07-10T00:22:24;11.07;;;1.92;;
20882;SDS011;10601;51.830;7.294;2022-07-10T00:24:51;9.52;;;1.45;;
20882;SDS011;10601;51.830;7.294;2022-07-10T00:27:17;4.60;;;1.50;;
20882;SDS011;10601;51.830;7.294;2022-07-10T00:29:43;6.28;;;1.63;;
20882;SDS011;10601;51.830;7.294;2022-07-10T00:32:10;10.98;;;2.08;;
20882;SDS011;10601;51.830;7.294;2022-07-10T00:34:36;6.28;;;2.08;;
20882;SDS011;10601;51.830;7.294;2022-07-10T00:37:02;10.13;;;1.98;;
20882;SDS011;10601;51.830;7.294;2022-07-10T00:39:30;3.03;;;1.73;;
20882;SDS011;10601;51.830;7.294;2022-07-10T00:42:05;9.55;;;1.80;;
20882;SDS011;10601;51.830;7.294;2022-07-10T00:44:33;6.13;;;1.58;;
20882;SDS011;10601;51.830;7.294;2022-07-10T00:46:59;7.95;;;1.85;;
20882;SDS011;10601;51.830;7.294;2022-07-10T00:49:25;8.77;;;1.70;;
20882;SDS011;10601;51.830;7.294;2022-07-10T00:51:51;8.52;;;1.60;;
20882;SDS011;10601;51.830;7.294;2022-07-10T00:54:18;6.28;;;2.00;;
20882;SDS011;10601;51.830;7.294;2022-07-10T00:56:45;6.22;;;1.40;;
20882;SDS011;10601;51.830;7.294;2022-07-10T00:59:11;8.30;;;1.58;;
20882;SDS011;10601;51.830;7.294;2022-07-10T01:01:38;12.07;;;1.90;;
20882;SDS011;10601;51.830;7.294;2022-07-10T01:04:04;5.32;;;1.52;;
20882;SDS011;10601;51.830;7.294;2022-07-10T01:06:31;4.95;;;1.50;;
20882;SDS011;10601;51.830;7.294;2022-07-10T01:08:58;8.80;;;1.85;;
20882;SDS011;10601;51.830;7.294;2022-07-10T01:11:24;9.20;;;1.90;;
20882;SDS011;10601;51.830;7.294;2022-07-10T01:13:50;8.02;;;2.00;;
20882;SDS011;10601;51.830;7.294;2022-07-10T01:16:16;7.57;;;1.75;;
20882;SDS011;10601;51.830;7.294;2022-07-10T01:18:43;9.20;;;1.77;;
20882;SDS011;10601;51.830;7.294;2022-07-10T01:23:53;6.22;;;1.90;;
20882;SDS011;10601;51.830;7.294;2022-07-10T01:26:20;8.70;;;2.13;;
20882;SDS011;10601;51.830;7.294;2022-07-10T01:28:49;10.02;;;1.77;;
20882;SDS011;10601;51.830;7.294;2022-07-10T01:31:19;7.40;;;1.67;;
20882;SDS011;10601;51.830;7.294;2022-07-10T01:33:50;7.15;;;1.83;;
20882;SDS011;10601;51.830;7.294;2022-07-10T01:36:16;11.68;;;2.00;;
20882;SDS011;10601;51.830;7.294;2022-07-10T01:38:43;11.15;;;2.00;;
20882;SDS011;10601;51.830;7.294;2022-07-10T01:41:09;9.75;;;2.00;;
20882;SDS011;10601;51.830;7.294;2022-07-10T01:43:36;10.63;;;2.80;;
20882;SDS011;10601;51.830;7.294;2022-07-10T01:46:03;9.38;;;2.05;;
20882;SDS011;10601;51.830;7.294;2022-07-10T01:48:30;14.88;;;2.40;;
20882;SDS011;10601;51.830;7.294;2022-07-10T01:50:56;10.93;;;2.10;;
20882;SDS011;10601;51.830;7.294;2022-07-10T01:53:22;12.10;;;2.45;;
20882;SDS011;10601;51.830;7.294;2022-07-10T01:55:49;7.15;;;2.05;;
20882;SDS011;10601;51.830;7.294;2022-07-10T01:58:15;13.13;;;3.00;;
20882;SDS011;10601;51.830;7.294;2022-07-10T02:00:41;11.10;;;1.95;;
20882;SDS011;10601;51.830;7.294;2022-07-10T02:03:07;9.48;;;2.00;;
20882;SDS011;10601;51.830;7.294;2022-07-10T02:05:52;8.23;;;2.30;;
20882;SDS011;10601;51.830;7.294;2022-07-10T02:08:18;6.80;;;2.20;;
20882;SDS011;10601;51.830;7.294;2022-07-10T02:10:44;9.45;;;2.38;;
20882;SDS011;10601;51.830;7.294;2022-07-10T02:13:10;9.52;;;2.30;;
20882;SDS011;10601;51.830;7.294;2022-07-10T02:15:40;9.57;;;2.53;;
20882;SDS011;10601;51.830;7.294;2022-07-10T02:18:07;9.10;;;2.25;;
20882;SDS011;10601;51.830;7.294;2022-07-10T02:20:33;6.50;;;1.95;;
20882;SDS011;10601;51.830;7.294;2022-07-10T02:23:00;8.70;;;2.33;;
20882;SDS011;10601;51.830;7.294;2022-07-10T02:25:27;9.55;;;2.30;;
20882;SDS011;10601;51.830;7.294;2022-07-10T02:27:53;13.13;;;2.60;;
20882;SDS011;10601;51.830;7.294;2022-07-10T02:30:19;10.70;;;2.15;;
20882;SDS011;10601;51.830;7.294;2022-07-10T02:32:45;8.98;;;2.53;;
20882;SDS011;10601;51.830;7.294;2022-07-10T02:35:11;16.42;;;2.72;;
20882;SDS011;10601;51.830;7.294;2022-07-10T02:37:38;9.43;;;2.40;;
20882;SDS011;10601;51.830;7.294;2022-07-10T02:40:04;7.70;;;1.88;;
20882;SDS011;10601;51.830;7.294;2022-07-10T02:42:30;9.00;;;2.45;;
20882;SDS011;10601;51.830;7.294;2022-07-10T02:44:56;9.13;;;2.63;;
20882;SDS011;10601;51.830;7.294;2022-07-10T02:47:22;5.63;;;1.80;;
20882;SDS011;10601;51.830;7.294;2022-07-10T02:49:48;8.63;;;2.58;;
20882;SDS011;10601;51.830;7.294;2022-07-10T02:52:14;8.23;;;2.33;;
20882;SDS011;10601;51.830;7.294;2022-07-10T02:54:40;8.52;;;2.60;;
20882;SDS011;10601;51.830;7.294;2022-07-10T02:57:07;9.52;;;2.47;;
20882;SDS011;10601;51.830;7.294;2022-07-10T02:59:33;4.45;;;1.95;;
20882;SDS011;10601;51.830;7.294;2022-07-10T03:01:59;4.22;;;2.00;;
20882;SDS011;10601;51.830;7.294;2022-07-10T03:04:26;7.85;;;2.13;;
20882;SDS011;10601;51.830;7.294;2022-07-10T03:06:52;6.90;;;2.30;;
20882;SDS011;10601;51.830;7.294;2022-07-10T03:09:18;9.75;;;2.75;;
20882;SDS011;10601;51.830;7.294;2022-07-10T03:11:44;11.70;;;2.63;;
20882;SDS011;10601;51.830;7.294;2022-07-10T03:14:10;10.50;;;2.40;;
20882;SDS011;10601;51.830;7.294;2022-07-10T03:16:37;7.38;;;2.28;;
20882;SDS011;10601;51.830;7.294;2022-07-10T03:19:03;13.55;;;2.47;;
20882;SDS011;10601;51.830;7.294;2022-07-10T03:21:29;13.45;;;2.90;;
20882;SDS011;10601;51.830;7.294;2022-07-10T03:23:57;17.15;;;2.78;;
20882;SDS011;10601;51.830;7.294;2022-07-10T03:26:24;6.13;;;2.25;;
20882;SDS011;10601;51.830;7.294;2022-07-10T03:28:50;8.63;;;2.45;;
20882;SDS011;10601;51.830;7.294;2022-07-10T03:31:16;6.55;;;2.22;;
20882;SDS011;10601;51.830;7.294;2022-07-10T03:33:42;8.93;;;2.50;;
20882;SDS011;10601;51.830;7.294;2022-07-10T03:36:08;8.70;;;2.47;;
20882;SDS011;10601;51.830;7.294;2022-07-10T03:38:34;10.30;;;2.58;;
20882;SDS011;10601;51.830;7.294;2022-07-10T03:41:00;8.57;;;2.70;;
20882;SDS011;10601;51.830;7.294;2022-07-10T03:43:26;10.05;;;2.42;;
20882;SDS011;10601;51.830;7.294;2022-07-10T03:45:52;7.13;;;2.17;;
20882;SDS011;10601;51.830;7.294;2022-07-10T03:48:18;7.95;;;2.25;;
20882;SDS011;10601;51.830;7.294;2022-07-10T03:50:44;15.52;;;2.65;;
20882;SDS011;10601;51.830;7.294;2022-07-10T03:53:14;14.25;;;2.50;;
20882;SDS011;10601;51.830;7.294;2022-07-10T03:55:40;10.68;;;2.53;;
20882;SDS011;10601;51.830;7.294;2022-07-10T03:58:06;11.20;;;2.15;;
20882;SDS011;10601;51.830;7.294;2022-07-10T04:00:32;8.13;;;2.20;;
20882;SDS011;10601;51.830;7.294;2022-07-10T04:03:01;12.07;;;2.42;;
20882;SDS011;10601;51.830;7.294;2022-07-10T04:05:28;11.23;;;2.45;;
20882;SDS011;10601;51.830;7.294;2022-07-10T04:07:55;8.23;;;2.47;;
20882;SDS011;10601;51.830;7.294;2022-07-10T04:10:22;12.02;;;2.55;;
20882;SDS011;10601;51.830;7.294;2022-07-10T04:12:49;11.52;;;2.30;;
20882;SDS011;10601;51.830;7.294;2022-07-10T04:15:16;18.73;;;3.20;;
20882;SDS011;10601;51.830;7.294;2022-07-10T04:17:42;13.32;;;2.47;;
20882;SDS011;10601;51.830;7.294;2022-07-10T04:20:08;10.95;;;2.15;;
20882;SDS011;10601;51.830;7.294;2022-07-10T04:22:35;10.35;;;2.50;;
20882;SDS011;10601;51.830;7.294;2022-07-10T04:25:03;9.63;;;2.55;;
20882;SDS011;10601;51.830;7.294;2022-07-10T04:27:31;8.70;;;2.55;;
20882;SDS011;10601;51.830;7.294;2022-07-10T04:29:57;11.55;;;2.35;;
20882;SDS011;10601;51.830;7.294;2022-07-10T04:32:23;10.43;;;2.30;;
20882;SDS011;10601;51.830;7.294;2022-07-10T04:34:49;11.98;;;2.65;;
20882;SDS011;10601;51.830;7.294;2022-07-10T04:37:16;7.72;;;2.33;;
20882;SDS011;10601;51.830;7.294;2022-07-10T04:39:42;12.52;;;2.25;;
20882;SDS011;10601;51.830;7.294;2022-07-10T04:42:08;6.88;;;2.33;;
20882;SDS011;10601;51.830;7.294;2022-07-10T04:44:35;14.30;;;2.10;;
20882;SDS011;10601;51.830;7.294;2022-07-10T04:47:02;11.50;;;1.98;;
20882;SDS011;10601;51.830;7.294;2022-07-10T04:49:29;8.27;;;1.90;;
20882;SDS011;10601;51.830;7.294;2022-07-10T04:51:55;8.95;;;2.05;;
20882;SDS011;10601;51.830;7.294;2022-07-10T04:54:24;9.93;;;2.03;;
20882;SDS011;10601;51.830;7.294;2022-07-10T04:56:50;8.77;;;2.10;;
20882;SDS011;10601;51.830;7.294;2022-07-10T04:59:16;10.93;;;1.67;;
20882;SDS011;10601;51.830;7.294;2022-07-10T05:01:43;5.32;;;1.52;;
20882;SDS011;10601;51.830;7.294;2022-07-10T05:04:09;8.60;;;1.83;;
20882;SDS011;10601;51.830;7.294;2022-07-10T05:06:35;10.43;;;2.35;;
20882;SDS011;10601;51.830;7.294;2022-07-10T05:09:01;7.00;;;1.70;;
20882;SDS011;10601;51.830;7.294;2022-07-10T05:11:28;10.57;;;2.22;;
20882;SDS011;10601;51.830;7.294;2022-07-10T05:13:54;14.90;;;2.50;;
20882;SDS011;10601;51.830;7.294;2022-07-10T05:16:21;7.22;;;1.70;;
20882;SDS011;10601;51.830;7.294;2022-07-10T05:18:47;8.38;;;1.55;;
20882;SDS011;10601;51.830;7.294;2022-07-10T05:21:13;10.02;;;1.70;;
20882;SDS011;10601;51.830;7.294;2022-07-10T05:23:40;9.10;;;1.88;;
20882;SDS011;10601;51.830;7.294;2022-07-10T05:26:06;10.43;;;1.70;;
20882;SDS011;10601;51.830;7.294;2022-07-10T05:28:32;9.35;;;2.15;;
20882;SDS011;10601;51.830;7.294;2022-07-10T05:30:58;7.85;;;1.88;;
20882;SDS011;10601;51.830;7.294;2022-07-10T05:33:24;12.00;;;1.80;;
20882;SDS011;10601;51.830;7.294;2022-07-10T05:35:53;8.30;;;2.00;;
20882;SDS011;10601;51.830;7.294;2022-07-10T05:38:20;8.75;;;1.83;;
20882;SDS011;10601;51.830;7.294;2022-07-10T05:40:46;9.43;;;1.52;;
20882;SDS011;10601;51.830;7.294;2022-07-10T05:43:12;9.98;;;1.60;;
20882;SDS011;10601;51.830;7.294;2022-07-10T05:45:38;7.10;;;1.88;;
20882;SDS011;10601;51.830;7.294;2022-07-10T05:48:04;7.25;;;1.58;;
20882;SDS011;10601;51.830;7.294;2022-07-10T05:50:31;7.13;;;1.80;;
20882;SDS011;10601;51.830;7.294;2022-07-10T05:52:57;9.05;;;1.80;;
20882;SDS011;10601;51.830;7.294;2022-07-10T05:55:24;10.00;;;1.70;;
20882;SDS011;10601;51.830;7.294;2022-07-10T05:57:50;6.80;;;1.42;;
20882;SDS011;10601;51.830;7.294;2022-07-10T06:00:16;11.75;;;2.33;;
20882;SDS011;10601;51.830;7.294;2022-07-10T06:02:42;7.05;;;1.58;;
20882;SDS011;10601;51.830;7.294;2022-07-10T06:05:08;7.22;;;1.40;;
20882;SDS011;10601;51.830;7.294;2022-07-10T06:07:35;8.57;;;1.77;;
20882;SDS011;10601;51.830;7.294;2022-07-10T06:10:02;11.32;;;1.60;;
20882;SDS011;10601;51.830;7.294;2022-07-10T06:12:29;8.90;;;1.60;;
20882;SDS011;10601;51.830;7.294;2022-07-10T06:14:55;8.52;;;1.60;;
20882;SDS011;10601;51.830;7.294;2022-07-10T06:17:22;8.95;;;1.65;;
20882;SDS011;10601;51.830;7.294;2022-07-10T06:19:48;8.27;;;1.48;;
20882;SDS011;10601;51.830;7.294;2022-07-10T06:22:14;11.18;;;1.75;;
20882;SDS011;10601;51.830;7.294;2022-07-10T06:24:56;5.78;;;2.05;;
20882;SDS011;10601;51.830;7.294;2022-07-10T06:27:23;11.73;;;2.10;;
20882;SDS011;10601;51.830;7.294;2022-07-10T06:29:49;10.52;;;1.63;;
20882;SDS011;10601;51.830;7.294;2022-07-10T06:32:15;12.40;;;1.63;;
20882;SDS011;10601;51.830;7.294;2022-07-10T06:34:41;13.10;;;2.28;;
20882;SDS011;10601;51.830;7.294;2022-07-10T06:37:08;14.40;;;2.00;;
20882;SDS011;10601;51.830;7.294;2022-07-10T06:39:34;12.48;;;1.90;;
20882;SDS011;10601;51.830;7.294;2022-07-10T06:42:01;5.97;;;1.40;;
20882;SDS011;10601;51.830;7.294;2022-07-10T06:44:31;7.43;;;1.70;;
20882;SDS011;10601;51.830;7.294;2022-07-10T06:46:57;12.05;;;1.67;;
20882;SDS011;10601;51.830;7.294;2022-07-10T06:49:44;11.15;;;2.25;;
20882;SDS011;10601;51.830;7.294;2022-07-10T06:52:13;7.35;;;1.50;;
20882;SDS011;10601;51.830;7.294;2022-07-10T06:54:40;9.48;;;1.52;;
20882;SDS011;10601;51.830;7.294;2022-07-10T06:57:07;14.55;;;1.90;;
20882;SDS011;10601;51.830;7.294;2022-07-10T06:59:33;6.22;;;1.63;;
20882;SDS011;10601;51.830;7.294;2022-07-10T07:02:00;11.82;;;1.98;;
20882;SDS011;10601;51.830;7.294;2022-07-10T07:04:26;7.68;;;1.35;;
20882;SDS011;10601;51.830;7.294;2022-07-10T07:06:52;14.40;;;1.85;;
20882;SDS011;10601;51.830;7.294;2022-07-10T07:09:18;12.88;;;1.98;;
20882;SDS011;10601;51.830;7.294;2022-07-10T07:11:44;11.85;;;1.95;;
20882;SDS011;10601;51.830;7.294;2022-07-10T07:14:11;10.48;;;1.85;;
20882;SDS011;10601;51.830;7.294;2022-07-10T07:16:38;9.00;;;1.50;;
20882;SDS011;10601;51.830;7.294;2022-07-10T07:19:08;10.02;;;1.58;;
20882;SDS011;10601;51.830;7.294;2022-07-10T07:21:46;16.85;;;2.13;;
20882;SDS011;10601;51.830;7.294;2022-07-10T07:24:30;11.05;;;1.80;;
20882;SDS011;10601;51.830;7.294;2022-07-10T07:26:56;7.50;;;2.20;;
20882;SDS011;10601;51.830;7.294;2022-07-10T07:29:22;9.90;;;1.80;;
20882;SDS011;10601;51.830;7.294;2022-07-10T07:31:48;8.85;;;2.00;;
20882;SDS011;10601;51.830;7.294;2022-07-10T07:34:14;11.15;;;1.55;;
20882;SDS011;10601;51.830;7.294;2022-07-10T07:36:40;9.45;;;1.33;;
20882;SDS011;10601;51.830;7.294;2022-07-10T07:39:06;8.20;;;1.67;;
20882;SDS011;10601;51.830;7.294;2022-07-10T07:41:32;10.10;;;1.92;;
20882;SDS011;10601;51.830;7.294;2022-07-10T07:43:58;9.65;;;1.60;;
20882;SDS011;10601;51.830;7.294;2022-07-10T07:46:25;7.97;;;1.73;;
20882;SDS011;10601;51.830;7.294;2022-07-10T07:48:51;12.00;;;1.75;;
20882;SDS011;10601;51.830;7.294;2022-07-10T07:51:17;6.75;;;2.05;;
20882;SDS011;10601;51.830;7.294;2022-07-10T07:53:43;10.63;;;1.88;;
20882;SDS011;10601;51.830;7.294;2022-07-10T07:56:09;11.20;;;2.53;;
20882;SDS011;10601;51.830;7.294;2022-07-10T07:58:35;8.30;;;1.60;;
20882;SDS011;10601;51.830;7.294;2022-07-10T08:01:01;13.23;;;1.75;;
20882;SDS011;10601;51.830;7.294;2022-07-10T08:03:27;6.43;;;2.00;;
20882;SDS011;10601;51.830;7.294;2022-07-10T08:05:54;6.28;;;1.58;;
20882;SDS011;10601;51.830;7.294;2022-07-10T08:08:20;13.43;;;2.00;;
20882;SDS011;10601;51.830;7.294;2022-07-10T08:10:46;9.10;;;1.70;;
20882;SDS011;10601;51.830;7.294;2022-07-10T08:13:12;8.27;;;1.90;;
20882;SDS011;10601;51.830;7.294;2022-07-10T08:15:38;10.32;;;1.65;;
20882;SDS011;10601;51.830;7.294;2022-07-10T08:18:04;7.78;;;1.70;;
20882;SDS011;10601;51.830;7.294;2022-07-10T08:20:32;11.95;;;1.90;;
20882;SDS011;10601;51.830;7.294;2022-07-10T08:22:58;9.52;;;1.70;;
20882;SDS011;10601;51.830;7.294;2022-07-10T08:25:24;11.35;;;2.08;;
20882;SDS011;10601;51.830;7.294;2022-07-10T08:27:51;7.10;;;2.20;;
20882;SDS011;10601;51.830;7.294;2022-07-10T08:30:17;11.00;;;2.17;;
20882;SDS011;10601;51.830;7.294;2022-07-10T08:32:43;11.55;;;2.50;;
20882;SDS011;10601;51.830;7.294;2022-07-10T08:35:09;9.02;;;1.77;;
20882;SDS011;10601;51.830;7.294;2022-07-10T08:37:37;12.07;;;1.95;;
20882;SDS011;10601;51.830;7.294;2022-07-10T08:40:10;11.65;;;2.33;;
20882;SDS011;10601;51.830;7.294;2022-07-10T08:42:38;10.25;;;2.25;;
20882;SDS011;10601;51.830;7.294;2022-07-10T08:45:06;7.97;;;2.10;;
20882;SDS011;10601;51.830;7.294;2022-07-10T08:47:36;10.63;;;2.38;;
20882;SDS011;10601;51.830;7.294;2022-07-10T08:50:04;13.80;;;2.50;;
20882;SDS011;10601;51.830;7.294;2022-07-10T08:54:58;9.88;;;2.17;;
20882;SDS011;10601;51.830;7.294;2022-07-10T08:57:25;15.10;;;2.72;;
20882;SDS011;10601;51.830;7.294;2022-07-10T08:59:51;13.50;;;3.30;;
20882;SDS011;10601;51.830;7.294;2022-07-10T09:02:19;6.63;;;2.38;;
20882;SDS011;10601;51.830;7.294;2022-07-10T09:04:45;12.52;;;3.00;;
20882;SDS011;10601;51.830;7.294;2022-07-10T09:07:12;12.65;;;2.72;;
20882;SDS011;10601;51.830;7.294;2022-07-10T09:09:52;12.43;;;2.80;;
20882;SDS011;10601;51.830;7.294;2022-07-10T09:12:22;8.82;;;2.22;;
20882;SDS011;10601;51.830;7.294;2022-07-10T09:14:49;9.88;;;2.40;;
20882;SDS011;10601;51.830;7.294;2022-07-10T09:17:16;9.52;;;2.13;;
20882;SDS011;10601;51.830;7.294;2022-07-10T09:19:43;9.90;;;2.67;;
20882;SDS011;10601;51.830;7.294;2022-07-10T09:22:10;11.02;;;2.33;;
20882;SDS011;10601;51.830;7.294;2022-07-10T09:24:41;11.98;;;2.50;;
20882;SDS011;10601;51.830;7.294;2022-07-10T09:27:10;11.13;;;2.22;;
20882;SDS011;10601;51.830;7.294;2022-07-10T09:29:47;7.63;;;2.00;;
20882;SDS011;10601;51.830;7.294;2022-07-10T09:32:17;10.98;;;2.05;;
20882;SDS011;10601;51.830;7.294;2022-07-10T09:34:44;7.53;;;2.05;;
20882;SDS011;10601;51.830;7.294;2022-07-10T09:40:00;7.95;;;1.70;;
20882;SDS011;10601;51.830;7.294;2022-07-10T09:50:30;4.30;;;1.55;;
20882;SDS011;10601;51.830;7.294;2022-07-10T09:53:01;5.03;;;1.58;;
20882;SDS011;10601;51.830;7.294;2022-07-10T09:55:30;6.43;;;1.98;;
20882;SDS011;10601;51.830;7.294;2022-07-10T09:58:04;3.17;;;1.83;;
20882;SDS011;10601;51.830;7.294;2022-07-10T10:00:35;7.95;;;1.60;;
20882;SDS011;10601;51.830;7.294;2022-07-10T10:03:03;4.35;;;1.20;;
20882;SDS011;10601;51.830;7.294;2022-07-10T10:05:38;5.70;;;1.60;;
20882;SDS011;10601;51.830;7.294;2022-07-10T10:10:40;4.63;;;1.80;;
20882;SDS011;10601;51.830;7.294;2022-07-10T10:13:10;9.52;;;3.63;;
20882;SDS011;10601;51.830;7.294;2022-07-10T10:15:37;4.50;;;2.05;;
20882;SDS011;10601;51.830;7.294;2022-07-10T10:18:04;6.03;;;2.17;;
20882;SDS011;10601;51.830;7.294;2022-07-10T10:20:31;8.82;;;2.13;;
20882;SDS011;10601;51.830;7.294;2022-07-10T10:23:10;5.72;;;1.58;;
20882;SDS011;10601;51.830;7.294;2022-07-10T10:25:38;3.97;;;1.63;;
20882;SDS011;10601;51.830;7.294;2022-07-10T10:28:05;4.88;;;1.77;;
20882;SDS011;10601;51.830;7.294;2022-07-10T10:30:35;3.35;;;1.83;;
20882;SDS011;10601;51.830;7.294;2022-07-10T10:36:01;5.28;;;1.90;;
20882;SDS011;10601;51.830;7.294;2022-07-10T10:39:03;7.80;;;2.30;;
20882;SDS011;10601;51.830;7.294;2022-07-10T10:41:24;5.03;;;2.13;;
20882;SDS011;10601;51.830;7.294;2022-07-10T10:46:34;9.40;;;3.38;;
20882;SDS011;10601;51.830;7.294;2022-07-10T10:49:04;10.07;;;3.55;;
20882;SDS011;10601;51.830;7.294;2022-07-10T10:54:22;3.83;;;3.00;;
20882;SDS011;10601;51.830;7.294;2022-07-10T10:59:46;9.63;;;3.80;;
20882;SDS011;10601;51.830;7.294;2022-07-10T11:04:46;8.45;;;3.85;;
20882;SDS011;10601;51.830;7.294;2022-07-10T11:07:12;5.03;;;3.00;;
20882;SDS011;10601;51.830;7.294;2022-07-10T11:15:29;5.95;;;3.25;;
20882;SDS011;10601;51.830;7.294;2022-07-10T11:17:58;10.18;;;3.80;;
20882;SDS011;10601;51.830;7.294;2022-07-10T11:20:30;5.18;;;3.90;;
20882;SDS011;10601;51.830;7.294;2022-07-10T11:23:01;6.38;;;3.83;;
20882;SDS011;10601;51.830;7.294;2022-07-10T11:25:55;6.40;;;3.50;;
20882;SDS011;10601;51.830;7.294;2022-07-10T11:28:51;6.90;;;3.83;;
20882;SDS011;10601;51.830;7.294;2022-07-10T11:31:21;4.93;;;3.42;;
20882;SDS011;10601;51.830;7.294;2022-07-10T11:33:51;5.13;;;3.20;;
20882;SDS011;10601;51.830;7.294;2022-07-10T11:36:19;8.15;;;3.60;;
20882;SDS011;10601;51.830;7.294;2022-07-10T11:39:00;6.82;;;3.70;;
20882;SDS011;10601;51.830;7.294;2022-07-10T11:41:27;4.13;;;2.72;;
20882;SDS011;10601;51.830;7.294;2022-07-10T11:43:55;5.30;;;2.22;;
20882;SDS011;10601;51.830;7.294;2022-07-10T11:46:26;2.67;;;1.85;;
20882;SDS011;10601;51.830;7.294;2022-07-10T11:48:54;2.42;;;1.42;;
20882;SDS011;10601;51.830;7.294;2022-07-10T11:51:24;2.80;;;1.65;;
20882;SDS011;10601;51.830;7.294;2022-07-10T11:53:56;2.88;;;1.73;;
20882;SDS011;10601;51.830;7.294;2022-07-10T11:56:31;3.78;;;1.95;;
20882;SDS011;10601;51.830;7.294;2022-07-10T11:59:08;2.67;;;1.77;;
20882;SDS011;10601;51.830;7.294;2022-07-10T12:01:49;4.53;;;1.80;;
20882;SDS011;10601;51.830;7.294;2022-07-10T12:04:17;1.33;;;1.20;;
20882;SDS011;10601;51.830;7.294;2022-07-10T12:06:45;2.67;;;1.30;;
20882;SDS011;10601;51.830;7.294;2022-07-10T12:09:14;3.00;;;1.52;;
20882;SDS011;10601;51.830;7.294;2022-07-10T12:11:41;1.98;;;1.50;;
20882;SDS011;10601;51.830;7.294;2022-07-10T12:14:15;2.22;;;1.30;;
20882;SDS011;10601;51.830;7.294;2022-07-10T12:16:46;4.40;;;1.40;;
20882;SDS011;10601;51.830;7.294;2022-07-10T12:19:15;1.35;;;1.20;;
20882;SDS011;10601;51.830;7.294;2022-07-10T12:21:42;2.15;;;1.05;;
20882;SDS011;10601;51.830;7.294;2022-07-10T12:24:12;2.97;;;1.40;;
20882;SDS011;10601;51.830;7.294;2022-07-10T12:26:39;2.28;;;0.82;;
20882;SDS011;10601;51.830;7.294;2022-07-10T12:29:11;2.58;;;0.95;;
20882;SDS011;10601;51.830;7.294;2022-07-10T12:31:44;2.05;;;1.20;;
20882;SDS011;10601;51.830;7.294;2022-07-10T12:34:11;2.30;;;0.90;;
20882;SDS011;10601;51.830;7.294;2022-07-10T12:36:42;3.47;;;1.35;;
20882;SDS011;10601;51.830;7.294;2022-07-10T12:39:09;2.00;;;1.08;;
20882;SDS011;10601;51.830;7.294;2022-07-10T12:41:52;5.13;;;1.00;;
20882;SDS011;10601;51.830;7.294;2022-07-10T12:47:11;1.63;;;0.82;;
20882;SDS011;10601;51.830;7.294;2022-07-10T12:52:29;3.50;;;1.38;;
20882;SDS011;10601;51.830;7.294;2022-07-10T12:58:04;2.28;;;0.70;;
20882;SDS011;10601;51.830;7.294;2022-07-10T13:00:35;4.13;;;1.10;;
20882;SDS011;10601;51.830;7.294;2022-07-10T13:03:02;3.92;;;1.20;;
20882;SDS011;10601;51.830;7.294;2022-07-10T13:05:39;1.58;;;1.10;;
20882;SDS011;10601;51.830;7.294;2022-07-10T13:08:24;2.65;;;1.15;;
20882;SDS011;10601;51.830;7.294;2022-07-10T13:10:52;3.13;;;1.25;;
20882;SDS011;10601;51.830;7.294;2022-07-10T13:13:24;4.78;;;1.25;;
20882;SDS011;10601;51.830;7.294;2022-07-10T13:15:50;3.15;;;1.40;;
20882;SDS011;10601;51.830;7.294;2022-07-10T13:18:19;3.15;;;1.38;;
20882;SDS011;10601;51.830;7.294;2022-07-10T13:20:48;2.53;;;1.48;;
20882;SDS011;10601;51.830;7.294;2022-07-10T13:23:16;4.28;;;1.60;;
20882;SDS011;10601;51.830;7.294;2022-07-10T13:25:46;3.38;;;1.58;;
20882;SDS011;10601;51.830;7.294;2022-07-10T13:28:12;6.35;;;1.45;;
20882;SDS011;10601;51.830;7.294;2022-07-10T13:30:38;7.07;;;1.88;;
20882;SDS011;10601;51.830;7.294;2022-07-10T13:33:05;3.70;;;1.65;;
20882;SDS011;10601;51.830;7.294;2022-07-10T13:35:32;2.75;;;1.42;;
20882;SDS011;10601;51.830;7.294;2022-07-10T13:37:59;4.47;;;1.80;;
20882;SDS011;10601;51.830;7.294;2022-07-10T13:40:27;2.40;;;1.30;;
20882;SDS011;10601;51.830;7.294;2022-07-10T13:42:53;4.93;;;1.50;;
20882;SDS011;10601;51.830;7.294;2022-07-10T13:45:19;1.90;;;1.30;;
20882;SDS011;10601;51.830;7.294;2022-07-10T13:47:46;3.40;;;1.38;;
20882;SDS011;10601;51.830;7.294;2022-07-10T13:50:12;2.38;;;1.40;;
20882;SDS011;10601;51.830;7.294;2022-07-10T13:52:38;3.03;;;1.20;;
20882;SDS011;10601;51.830;7.294;2022-07-10T13:55:04;3.40;;;1.55;;
20882;SDS011;10601;51.830;7.294;2022-07-10T13:57:32;3.17;;;1.55;;
20882;SDS011;10601;51.830;7.294;2022-07-10T13:59:58;2.55;;;1.38;;
20882;SDS011;10601;51.830;7.294;2022-07-10T14:02:24;6.97;;;1.60;;
20882;SDS011;10601;51.830;7.294;2022-07-10T14:04:51;3.30;;;1.60;;
20882;SDS011;10601;51.830;7.294;2022-07-10T14:07:17;4.65;;;1.70;;
20882;SDS011;10601;51.830;7.294;2022-07-10T14:09:43;3.47;;;1.63;;
20882;SDS011;10601;51.830;7.294;2022-07-10T14:12:10;4.28;;;2.13;;
20882;SDS011;10601;51.830;7.294;2022-07-10T14:14:36;3.03;;;1.95;;
20882;SDS011;10601;51.830;7.294;2022-07-10T14:17:02;6.28;;;2.15;;
20882;SDS011;10601;51.830;7.294;2022-07-10T14:19:28;4.30;;;2.20;;
20882;SDS011;10601;51.830;7.294;2022-07-10T14:21:54;6.65;;;2.20;;
20882;SDS011;10601;51.830;7.294;2022-07-10T14:24:21;3.38;;;2.67;;
20882;SDS011;10601;51.830;7.294;2022-07-10T14:26:48;5.45;;;2.25;;
20882;SDS011;10601;51.830;7.294;2022-07-10T14:29:14;4.15;;;2.22;;
20882;SDS011;10601;51.830;7.294;2022-07-10T14:31:41;5.22;;;2.58;;
20882;SDS011;10601;51.830;7.294;2022-07-10T14:34:07;5.68;;;2.70;;
20882;SDS011;10601;51.830;7.294;2022-07-10T14:36:33;6.78;;;2.88;;
20882;SDS011;10601;51.830;7.294;2022-07-10T14:38:59;6.25;;;2.50;;
20882;SDS011;10601;51.830;7.294;2022-07-10T14:41:25;7.50;;;3.03;;
20882;SDS011;10601;51.830;7.294;2022-07-10T14:43:51;8.70;;;2.90;;
20882;SDS011;10601;51.830;7.294;2022-07-10T14:46:17;5.53;;;2.88;;
20882;SDS011;10601;51.830;7.294;2022-07-10T14:48:44;3.80;;;2.50;;
20882;SDS011;10601;51.830;7.294;2022-07-10T14:51:10;11.25;;;2.70;;
20882;SDS011;10601;51.830;7.294;2022-07-10T14:53:36;5.00;;;2.88;;
20882;SDS011;10601;51.830;7.294;2022-07-10T14:56:03;8.45;;;3.47;;
20882;SDS011;10601;51.830;7.294;2022-07-10T14:58:30;4.53;;;2.53;;
20882;SDS011;10601;51.830;7.294;2022-07-10T15:00:59;3.95;;;2.50;;
20882;SDS011;10601;51.830;7.294;2022-07-10T15:03:26;6.15;;;2.17;;
20882;SDS011;10601;51.830;7.294;2022-07-10T15:05:52;4.30;;;2.60;;
20882;SDS011;10601;51.830;7.294;2022-07-10T15:08:19;5.68;;;2.67;;
20882;SDS011;10601;51.830;7.294;2022-07-10T15:10:46;6.85;;;2.70;;
20882;SDS011;10601;51.830;7.294;2022-07-10T15:13:12;4.68;;;2.50;;
20882;SDS011;10601;51.830;7.294;2022-07-10T15:15:39;4.85;;;2.67;;
20882;SDS011;10601;51.830;7.294;2022-07-10T15:18:05;5.75;;;2.70;;
20882;SDS011;10601;51.830;7.294;2022-07-10T15:20:32;5.65;;;2.30;;
20882;SDS011;10601;51.830;7.294;2022-07-10T15:22:58;2.83;;;2.17;;
20882;SDS011;10601;51.830;7.294;2022-07-10T15:25:24;6.38;;;2.60;;
20882;SDS011;10601;51.830;7.294;2022-07-10T15:27:51;5.20;;;2.30;;
20882;SDS011;10601;51.830;7.294;2022-07-10T15:30:18;2.63;;;1.90;;
20882;SDS011;10601;51.830;7.294;2022-07-10T15:32:44;5.30;;;2.25;;